createdAt,value
2019-02-07T00:02:01.886Z,5.53
2019-02-07T00:04:28.600Z,5.40
2019-02-07T00:06:54.979Z,5.43
2019-02-07T00:09:21.337Z,5.33
2019-02-07T00:11:48.059Z,6.00
2019-02-07T00:14:14.797Z,6.07
2019-02-07T00:16:41.667Z,5.67
2019-02-07T00:19:10.118Z,5.73
2019-02-07T00:21:36.897Z,5.47
2019-02-07T00:24:04.560Z,5.80
2019-02-07T00:26:31.216Z,5.50
2019-02-07T00:28:57.773Z,5.70
2019-02-07T00:31:24.392Z,5.83
2019-02-07T00:33:51.309Z,5.87
2019-02-07T00:36:17.582Z,5.93
2019-02-07T00:38:43.958Z,5.70
2019-02-07T00:41:10.325Z,6.20
2019-02-07T00:43:38.000Z,6.60
2019-02-07T00:46:04.457Z,7.17
2019-02-07T00:48:30.838Z,8.23
2019-02-07T00:50:57.210Z,7.17
2019-02-07T00:53:25.750Z,6.50
2019-02-07T00:55:52.732Z,5.93
2019-02-07T00:58:19.613Z,6.20
2019-02-07T01:00:46.198Z,6.87
2019-02-07T01:03:12.462Z,8.03
2019-02-07T01:05:39.123Z,6.37
2019-02-07T01:08:07.401Z,7.37
2019-02-07T01:10:33.669Z,6.27
2019-02-07T01:13:00.836Z,5.30
2019-02-07T01:15:27.587Z,6.77
2019-02-07T01:17:54.982Z,6.90
2019-02-07T01:20:21.941Z,6.53
2019-02-07T01:22:48.813Z,6.67
2019-02-07T01:25:18.549Z,5.73
2019-02-07T01:27:45.273Z,6.93
2019-02-07T01:30:13.333Z,6.30
2019-02-07T01:32:40.094Z,5.70
2019-02-07T01:35:06.582Z,5.10
2019-02-07T01:37:32.855Z,5.70
2019-02-07T01:39:59.162Z,5.43
2019-02-07T01:42:25.710Z,5.60
2019-02-07T01:44:54.221Z,6.30
2019-02-07T01:47:21.483Z,5.97
2019-02-07T01:49:47.774Z,5.83
2019-02-07T01:52:14.396Z,5.67
2019-02-07T01:54:42.970Z,5.83
2019-02-07T01:57:09.602Z,5.77
2019-02-07T01:59:36.377Z,5.83
2019-02-07T02:02:03.303Z,5.50
2019-02-07T02:04:29.960Z,5.40
2019-02-07T02:06:56.283Z,5.33
2019-02-07T02:09:24.954Z,5.53
2019-02-07T02:11:51.222Z,5.17
2019-02-07T02:14:17.901Z,6.40
2019-02-07T02:16:44.645Z,5.43
2019-02-07T02:19:11.846Z,5.97
2019-02-07T02:21:38.801Z,5.90
2019-02-07T02:24:05.488Z,5.07
2019-02-07T02:26:32.273Z,6.13
2019-02-07T02:28:58.742Z,6.00
2019-02-07T02:31:25.052Z,5.63
2019-02-07T02:33:51.670Z,5.90
2019-02-07T02:36:18.309Z,5.30
2019-02-07T02:38:46.994Z,5.10
2019-02-07T02:41:13.760Z,4.73
2019-02-07T02:43:41.219Z,5.43
2019-02-07T02:46:08.269Z,5.07
2019-02-07T02:48:34.664Z,4.87
2019-02-07T02:51:01.438Z,5.03
2019-02-07T02:53:27.737Z,5.77
2019-02-07T02:55:56.225Z,5.30
2019-02-07T02:58:23.639Z,5.53
2019-02-07T03:00:55.271Z,6.33
2019-02-07T03:03:23.807Z,5.47
2019-02-07T03:05:55.114Z,5.03
2019-02-07T03:08:23.657Z,5.63
2019-02-07T03:11:08.482Z,5.63
2019-02-07T03:13:54.522Z,4.60
2019-02-07T03:16:31.621Z,4.27
2019-02-07T03:19:08.948Z,5.13
2019-02-07T03:21:45.177Z,4.80
2019-02-07T03:24:30.554Z,4.63
2019-02-07T03:27:08.366Z,4.17
2019-02-07T03:29:43.353Z,4.77
2019-02-07T03:32:12.598Z,4.67
2019-02-07T03:34:40.776Z,4.70
2019-02-07T03:37:11.939Z,5.87
2019-02-07T03:39:50.026Z,5.43
2019-02-07T03:42:35.238Z,5.23
2019-02-07T03:45:13.144Z,4.97
2019-02-07T03:47:59.727Z,5.23
2019-02-07T03:50:33.678Z,5.43
2019-02-07T03:53:11.894Z,5.53
2019-02-07T03:55:40.667Z,4.80
2019-02-07T03:58:12.329Z,5.50
2019-02-07T04:00:57.654Z,5.80
2019-02-07T04:03:37.863Z,5.40
2019-02-07T04:06:20.405Z,5.23
2019-02-07T04:09:07.904Z,4.77
2019-02-07T04:11:36.694Z,5.47
2019-02-07T04:14:11.486Z,5.97
2019-02-07T04:16:40.014Z,5.47
2019-02-07T04:19:08.882Z,4.77
2019-02-07T04:21:46.081Z,5.23
2019-02-07T04:24:20.390Z,6.07
2019-02-07T04:26:48.667Z,5.80
2019-02-07T04:29:33.439Z,6.70
2019-02-07T04:32:01.672Z,4.73
2019-02-07T04:34:45.244Z,4.80
2019-02-07T04:37:28.935Z,5.20
2019-02-07T04:40:03.102Z,6.87
2019-02-07T04:42:47.639Z,5.53
2019-02-07T04:45:20.645Z,5.40
2019-02-07T04:47:52.037Z,6.60
2019-02-07T04:50:29.643Z,5.83
2019-02-07T04:53:12.962Z,5.60
2019-02-07T04:55:57.763Z,6.30
2019-02-07T04:58:33.137Z,6.33
2019-02-07T05:01:05.894Z,6.47
2019-02-07T05:12:19.830Z,6.70
2019-02-07T05:15:04.898Z,8.10
2019-02-07T05:17:36.589Z,5.23
2019-02-07T05:20:10.330Z,6.47
2019-02-07T05:22:41.725Z,5.93
2019-02-07T05:25:09.989Z,6.50
2019-02-07T05:27:50.817Z,7.30
2019-02-07T05:30:39.686Z,7.17
2019-02-07T05:33:08.345Z,7.10
2019-02-07T05:35:45.765Z,6.63
2019-02-07T05:55:42.370Z,6.07
2019-02-07T05:58:13.775Z,6.30
2019-02-07T06:00:59.165Z,6.43
2019-02-07T06:03:30.302Z,6.00
2019-02-07T06:06:01.253Z,5.60
2019-02-07T06:08:32.180Z,5.30
2019-02-07T06:11:03.365Z,6.70
2019-02-07T06:13:32.104Z,5.40
2019-02-07T06:16:09.685Z,6.20
2019-02-07T06:18:55.446Z,6.50
2019-02-07T06:21:32.632Z,6.57
2019-02-07T06:24:16.133Z,6.13
2019-02-07T06:26:44.603Z,5.10
2019-02-07T06:29:29.421Z,5.30
2019-02-07T06:32:13.996Z,5.83
2019-02-07T06:34:46.380Z,6.00
2019-02-07T06:37:23.833Z,6.23
2019-02-07T06:40:04.435Z,7.80
2019-02-07T06:42:32.993Z,6.63
2019-02-07T06:45:09.761Z,6.93
2019-02-07T06:47:38.338Z,6.80
2019-02-07T06:50:16.895Z,7.93
2019-02-07T06:52:57.118Z,7.53
2019-02-07T06:55:25.672Z,7.87
2019-02-07T06:58:10.476Z,10.93
2019-02-07T07:00:55.569Z,7.83
2019-02-07T07:03:33.133Z,7.03
2019-02-07T07:06:01.311Z,6.97
2019-02-07T07:08:44.569Z,7.63
2019-02-07T07:11:18.595Z,6.00
2019-02-07T07:23:14.654Z,6.33
2019-02-07T07:25:52.115Z,6.73
2019-02-07T07:28:32.615Z,6.10
2019-02-07T07:31:19.195Z,7.33
2019-02-07T07:33:53.561Z,6.90
2019-02-07T07:36:25.213Z,6.40
2019-02-07T07:38:56.501Z,5.57
2019-02-07T07:41:30.649Z,5.67
2019-02-07T07:44:00.847Z,5.73
2019-02-07T07:46:29.446Z,6.40
2019-02-07T07:49:00.637Z,6.33
2019-02-07T07:51:31.558Z,7.80
2019-02-07T07:54:00.160Z,5.30
2019-02-07T07:56:31.269Z,7.17
2019-02-07T07:59:02.735Z,6.40
2019-02-07T08:01:42.803Z,5.70
2019-02-07T08:04:23.035Z,6.40
2019-02-07T08:06:51.598Z,5.50
2019-02-07T08:09:32.282Z,7.00
2019-02-07T08:12:07.338Z,6.40
2019-02-07T08:14:48.092Z,6.33
2019-02-07T08:17:23.870Z,6.40
2019-02-07T08:25:42.475Z,6.47
2019-02-07T08:36:37.230Z,5.47
2019-02-07T08:39:10.750Z,4.93
2019-02-07T08:47:21.279Z,4.80
2019-02-07T08:50:06.218Z,4.57
2019-02-07T08:52:34.692Z,4.50
2019-02-07T08:55:04.119Z,4.43
2019-02-07T08:57:47.874Z,5.13
2019-02-07T09:00:23.381Z,4.17
2019-02-07T09:03:10.078Z,3.87
2019-02-07T09:05:41.534Z,3.40
2019-02-07T09:08:10.074Z,4.10
2019-02-07T09:25:36.573Z,2.73
2019-02-07T09:28:17.200Z,3.40
2019-02-07T09:30:51.722Z,2.43
2019-02-07T09:33:23.217Z,3.60
2019-02-07T09:35:51.798Z,3.37
2019-02-07T09:38:36.890Z,2.23
2019-02-07T09:41:20.471Z,2.90
2019-02-07T09:43:49.024Z,2.33
2019-02-07T09:46:20.177Z,2.67
2019-02-07T09:49:08.531Z,2.90
2019-02-07T09:51:36.298Z,3.20
2019-02-07T09:54:13.189Z,3.70
2019-02-07T09:56:47.187Z,3.50
2019-02-07T09:59:32.111Z,3.17
2019-02-07T10:02:12.329Z,3.30
2019-02-07T10:04:52.813Z,4.20
2019-02-07T10:07:23.997Z,4.37
2019-02-07T10:10:01.116Z,3.43
2019-02-07T10:12:41.634Z,3.63
2019-02-07T10:15:16.129Z,4.07
2019-02-07T10:17:45.691Z,4.47
2019-02-07T10:20:14.337Z,4.60
2019-02-07T10:22:42.521Z,3.17
2019-02-07T10:25:17.048Z,3.17
2019-02-07T10:27:48.241Z,4.37
2019-02-07T10:30:20.122Z,3.37
2019-02-07T10:33:06.527Z,4.23
2019-02-07T10:35:42.965Z,3.43
2019-02-07T11:45:12.195Z,4.63
2019-02-07T11:47:40.450Z,4.30
2019-02-07T11:50:09.992Z,4.27
2019-02-07T11:52:38.438Z,3.77
2019-02-07T11:55:16.990Z,4.40
2019-02-07T11:57:45.313Z,3.70
2019-02-07T12:17:18.323Z,3.20
2019-02-07T12:19:55.446Z,3.47
2019-02-07T12:22:39.078Z,3.40
2019-02-07T12:25:24.293Z,3.03
2019-02-07T12:28:01.832Z,3.20
2019-02-07T13:52:58.306Z,1.83
2019-02-07T13:55:32.633Z,2.23
2019-02-07T13:58:01.513Z,1.90
2019-02-07T14:00:46.646Z,1.93
2019-02-07T14:03:15.347Z,2.30
2019-02-07T14:05:49.590Z,1.93
2019-02-07T14:08:38.342Z,2.00
2019-02-07T14:11:10.106Z,1.67
2019-02-07T14:13:41.001Z,1.80
2019-02-07T14:24:23.708Z,1.50
2019-02-07T14:26:52.350Z,1.43
2019-02-07T14:29:37.082Z,2.07
2019-02-07T14:32:14.884Z,2.20
2019-02-07T14:34:55.345Z,2.40
2019-02-07T14:37:26.259Z,1.60
2019-02-07T14:40:11.039Z,1.40
2019-02-07T14:42:39.609Z,1.17
2019-02-07T14:45:25.185Z,1.30
2019-02-07T14:47:51.847Z,1.20
2019-02-07T14:50:18.280Z,1.60
2019-02-07T14:52:45.077Z,1.57
2019-02-07T14:55:11.767Z,1.30
2019-02-07T14:57:38.585Z,1.30
2019-02-07T15:00:11.682Z,0.80
2019-02-07T15:02:38.366Z,0.70
2019-02-07T15:25:45.218Z,1.13
2019-02-07T15:28:11.910Z,1.17
2019-02-07T15:30:38.237Z,0.80
2019-02-07T15:33:04.970Z,0.90
2019-02-07T15:35:34.006Z,1.27
2019-02-07T15:38:00.942Z,0.80
2019-02-07T15:40:27.356Z,1.00
2019-02-07T15:42:53.934Z,0.93
2019-02-07T15:45:20.909Z,0.80
2019-02-07T15:47:47.806Z,1.00
2019-02-07T15:50:19.810Z,1.10
2019-02-07T15:52:46.497Z,1.50
2019-02-07T15:55:13.483Z,1.00
2019-02-07T15:57:39.842Z,0.87
2019-02-07T16:00:11.888Z,1.53
2019-02-07T16:02:38.270Z,1.90
2019-02-07T16:05:06.987Z,2.90
2019-02-07T16:07:33.319Z,3.63
2019-02-07T16:10:00.325Z,2.20
2019-02-07T16:12:27.109Z,1.67
2019-02-07T16:14:53.717Z,1.73
2019-02-07T16:17:19.991Z,1.13
2019-02-07T16:19:46.420Z,1.10
2019-02-07T16:22:13.056Z,0.93
2019-02-07T16:24:39.841Z,1.20
2019-02-07T16:27:09.357Z,0.90
2019-02-07T17:25:08.800Z,0.87
2019-02-07T17:27:37.192Z,0.77
2019-02-07T17:30:11.073Z,1.20
2019-02-07T17:32:37.762Z,1.03
2019-02-07T17:35:04.785Z,0.90
2019-02-07T17:37:31.437Z,1.10
2019-02-07T17:39:59.088Z,1.40
2019-02-07T17:42:25.538Z,2.00
2019-02-07T17:44:52.215Z,2.23
2019-02-07T17:47:18.857Z,1.60
2019-02-07T17:49:45.479Z,1.80
2019-02-07T17:52:11.814Z,1.90
2019-02-07T17:54:38.635Z,1.87
2019-02-07T17:57:07.991Z,1.97
2019-02-07T18:39:34.405Z,3.53
2019-02-07T18:42:01.063Z,3.50
2019-02-07T18:44:27.690Z,4.23
2019-02-07T18:46:55.756Z,4.10
2019-02-07T18:49:22.472Z,3.47
2019-02-07T18:51:49.959Z,3.73
2019-02-07T18:54:16.361Z,3.07
2019-02-07T18:56:42.802Z,3.20
2019-02-07T18:59:09.293Z,3.07
2019-02-07T19:01:37.780Z,3.13
2019-02-07T19:09:27.899Z,3.97
2019-02-07T19:11:56.263Z,3.27
2019-02-07T19:22:49.583Z,2.37
2019-02-07T19:25:16.334Z,2.63
2019-02-07T19:27:44.519Z,1.97
2019-02-07T19:30:20.899Z,1.87
2019-02-07T19:32:49.057Z,1.93
2019-02-07T19:35:17.650Z,2.07
2019-02-07T20:02:05.717Z,2.83
2019-02-07T20:04:32.257Z,2.17
2019-02-07T20:06:58.959Z,1.83
2019-02-07T20:09:26.097Z,1.73
2019-02-07T20:11:53.766Z,1.43
2019-02-07T20:19:53.818Z,1.80
2019-02-07T20:22:21.245Z,2.00
2019-02-07T20:24:48.086Z,2.50
2019-02-07T20:27:14.403Z,3.20
2019-02-07T21:06:22.010Z,2.03
2019-02-07T21:08:48.323Z,2.30
2019-02-07T21:11:15.238Z,1.47
2019-02-07T21:25:17.254Z,2.60
2019-02-07T21:27:44.041Z,2.33
2019-02-07T21:30:15.393Z,1.50
2019-02-07T21:32:42.034Z,1.90
2019-02-07T21:35:12.118Z,1.93
2019-02-07T21:37:38.745Z,1.70
2019-02-07T21:40:07.574Z,1.63
2019-02-07T21:42:34.233Z,1.80
2019-02-07T21:45:00.874Z,2.37
2019-02-07T21:47:27.172Z,2.37
2019-02-07T21:49:53.818Z,2.10
2019-02-07T21:52:20.511Z,1.87
2019-02-07T21:54:46.993Z,1.60
2019-02-07T21:57:13.273Z,1.70
2019-02-07T21:59:39.949Z,1.90
2019-02-07T22:02:06.614Z,1.73
2019-02-07T22:04:33.553Z,1.50
2019-02-07T22:07:00.470Z,2.00
2019-02-07T22:09:27.133Z,1.93
2019-02-07T22:11:53.762Z,2.57
2019-02-07T22:14:20.430Z,2.10
2019-02-07T22:16:46.695Z,2.50
2019-02-07T22:19:13.206Z,3.00
2019-02-07T22:21:39.494Z,2.50
2019-02-07T22:24:06.230Z,2.13
2019-02-07T22:26:32.879Z,2.27
2019-02-07T22:28:59.614Z,2.43
2019-02-07T22:31:26.278Z,2.10
2019-02-07T22:33:53.002Z,2.40
2019-02-07T22:36:19.673Z,2.67
2019-02-07T22:38:45.953Z,1.83
2019-02-07T22:41:12.809Z,1.87
2019-02-07T22:43:41.324Z,2.27
2019-02-07T22:46:07.957Z,2.90
2019-02-07T22:48:34.729Z,2.70
2019-02-07T22:51:01.370Z,2.70
2019-02-07T22:53:28.357Z,2.80
2019-02-07T22:55:54.889Z,2.27
2019-02-07T22:58:21.201Z,2.17
2019-02-07T23:00:52.847Z,2.37
2019-02-07T23:03:20.564Z,1.90
2019-02-07T23:05:48.743Z,2.13
2019-02-07T23:08:15.945Z,1.87
2019-02-07T23:10:42.865Z,2.33
2019-02-07T23:13:09.638Z,1.63
2019-02-07T23:15:36.101Z,1.90
2019-02-07T23:18:07.370Z,1.50
2019-02-07T23:20:34.418Z,1.83
2019-02-07T23:23:05.366Z,1.80
2019-02-07T23:25:29.849Z,1.93
2019-02-07T23:27:56.722Z,1.80
2019-02-07T23:30:23.378Z,1.80
2019-02-07T23:32:49.678Z,1.50
2019-02-07T23:35:16.297Z,1.53
2019-02-07T23:37:45.134Z,1.63
2019-02-07T23:40:19.898Z,1.80
2019-02-07T23:42:46.870Z,1.63
2019-02-07T23:45:16.391Z,1.70
2019-02-07T23:47:43.009Z,1.30
2019-02-07T23:50:11.531Z,1.60
2019-02-07T23:52:38.414Z,1.50
2019-02-07T23:55:07.682Z,1.87
2019-02-07T23:57:34.325Z,1.43
